Joanne Reinauer — WCW8841 — position and weather

sailwx.info

Track history (hours):
 
Tides and Currents Weather Stations Pressure Air Temp Water Temp Dewpoint Dewpoint Depression Visibility Wind Speed Wind Dir Waves Ship Positions

Joanne Reinauer

Owner: REINAUER TRANSPORTATION CO.LLC., STATEN ISLAND, NY. More information available from US FCC via Universal Licensing System and Coast Guard Vessel Documentation Center.

Last reported at 2017-Sep-19 12:53 UTC. Time now 2017-Sep-22 18:58 UTC.
Position N 41°47' W 071°22'.

Length 117 m; draft 4.3 m.

Type: . MMSI: 366238690.

Date/timePositionNaut miles runAvg speedWind from/ knotsBaromVisibWave heightAir tempDewpointWater temp
2017-Sep-19 12:53N 41°47' W 071°22'0 0.2
2017-Sep-19 12:30N 41°47' W 071°22'0 0.2
2017-Sep-19 12:00N 41°47' W 071°22'0 0.0
2017-Sep-19 11:30N 41°47' W 071°22'0 0.0
2017-Sep-19 11:00N 41°47' W 071°22'0 0.9
2017-Sep-19 10:30N 41°47' W 071°23'0 0.0
2017-Sep-18 22:36N 41°47' W 071°23'0 2.8
2017-Sep-18 22:30N 41°47' W 071°22'1 1.7
2017-Sep-18 21:51N 41°48' W 071°23'1 1.3
2017-Sep-18 20:56N 41°47' W 071°22'2 5.6
2017-Sep-18 20:30N 41°44' W 071°22'4 7.8
2017-Sep-18 20:00N 41°41' W 071°19'4 7.8
2017-Sep-18 19:31N 41°38' W 071°18'4 7.9
2017-Sep-18 19:00N 41°34' W 071°19'42 6.4
2017-Sep-18 12:27N 41°14' W 072°08'3 5.5
2017-Sep-18 11:57N 41°13' W 072°12'3 5.9
2017-Sep-18 11:25N 41°12' W 072°16'2 6.0
2017-Sep-18 11:00N 41°11' W 072°19'3 6.2
2017-Sep-18 10:30N 41°10' W 072°23'3 6.7
2017-Sep-18 10:00N 41°09' W 072°27'3 6.7
2017-Sep-18 09:30N 41°08' W 072°32'4 7.4
2017-Sep-18 09:00N 41°08' W 072°36'4 8.0
2017-Sep-18 08:30N 41°07' W 072°42'4 8.3
2017-Sep-18 08:00N 41°06' W 072°47'44 8.3
2017-Sep-18 02:40N 40°53' W 073°43'1 7.6
2017-Sep-18 02:29N 40°52' W 073°45'4 7.1
2017-Sep-18 01:51N 40°48' W 073°47'2 6.9
2017-Sep-18 01:30N 40°48' W 073°51'3 6.4
2017-Sep-18 00:59N 40°47' W 073°55'4 7.9
2017-Sep-18 00:31N 40°44' W 073°58'4 8.2
2017-Sep-18 00:00N 40°41' W 074°01'4 8.5
2017-Sep-17 23:30N 40°39' W 074°06'4 7.8
2017-Sep-17 23:00N 40°39' W 074°11'3 5.6
2017-Sep-17 22:30N 40°36' W 074°12'2 5.0
2017-Sep-17 22:00N 40°34' W 074°13'1 1.8
2017-Sep-17 21:23N 40°33' W 074°14'0 0.1
2017-Sep-17 20:56N 40°33' W 074°14'0 0.1
2017-Sep-17 20:29N 40°34' W 074°14'0 0.0
2017-Sep-17 19:59N 40°34' W 074°14'0 0.0
2017-Sep-17 19:28N 40°34' W 074°14'0 0.0
2017-Sep-17 18:46N 40°34' W 074°14'0 0.0
2017-Sep-17 18:29N 40°34' W 074°14'0 0.0
2017-Sep-17 17:53N 40°34' W 074°14'0 0.0
2017-Sep-17 17:30N 40°34' W 074°14'3 6.0
2017-Sep-17 17:00N 40°36' W 074°12'3 6.8
2017-Sep-17 16:30N 40°39' W 074°10'4 7.5
2017-Sep-17 16:00N 40°39' W 074°05'2 3.6
2017-Sep-17 15:28N 40°40' W 074°02'0 0.0
2017-Sep-17 14:58N 40°40' W 074°02'0 0.0
2017-Sep-17 14:28N 40°40' W 074°02'0 0.1
2017-Sep-17 13:58N 40°40' W 074°02'0 0.0
2017-Sep-17 13:28N 40°40' W 074°02'0 0.1
2017-Sep-17 12:58N 40°40' W 074°02'0 0.2
2017-Sep-17 12:28N 40°40' W 074°02'0 0.1
2017-Sep-17 11:58N 40°40' W 074°02'0 0.0
2017-Sep-17 11:28N 40°40' W 074°02'0 0.0
2017-Sep-17 10:58N 40°40' W 074°02'0 0.0
2017-Sep-17 10:28N 40°40' W 074°02'0 0.0
2017-Sep-17 09:58N 40°40' W 074°02'0 0.0
2017-Sep-17 09:30N 40°40' W 074°02'1 1.7
2017-Sep-17 08:59N 40°40' W 074°01'0 0.0
2017-Sep-17 08:29N 40°40' W 074°01'0 0.0
2017-Sep-17 07:59N 40°40' W 074°01'0 0.0
2017-Sep-17 07:29N 40°40' W 074°01'0 0.0
2017-Sep-17 06:59N 40°40' W 074°01'0 0.0
2017-Sep-17 06:29N 40°40' W 074°01'0 0.0
2017-Sep-17 05:59N 40°40' W 074°01'0 0.0
2017-Sep-17 05:30N 40°40' W 074°01'0 0.0
2017-Sep-17 04:59N 40°40' W 074°01'0 0.0
2017-Sep-17 04:29N 40°40' W 074°01'1 1.6
2017-Sep-17 04:01N 40°40' W 074°02'4 7.7
2017-Sep-17 03:31N 40°39' W 074°06'4 8.5
2017-Sep-17 03:00N 40°38' W 074°12'4 7.9
2017-Sep-17 02:28N 40°34' W 074°13'1 0.7
2017-Sep-17 00:40N 40°34' W 074°14'0 0.0
2017-Sep-16 23:33N 40°33' W 074°14'0 0.1
2017-Sep-16 23:23N 40°33' W 074°14'0 0.0
2017-Sep-16 23:00N 40°33' W 074°14'1 2.5
2017-Sep-16 22:30N 40°34' W 074°13'3 5.0
2017-Sep-16 22:00N 40°36' W 074°12'3 5.6
2017-Sep-16 21:30N 40°39' W 074°11'3 6.0
2017-Sep-16 21:01N 40°39' W 074°07'0 0.2
2017-Sep-16 20:31N 40°39' W 074°07'1 2.0
2017-Sep-16 20:01N 40°38' W 074°08'0 0.0
2017-Sep-16 19:31N 40°38' W 074°08'0 0.0
2017-Sep-16 19:00N 40°38' W 074°08'0 0.0
2017-Sep-16 18:31N 40°38' W 074°08'0 0.0
2017-Sep-16 18:00N 40°38' W 074°08'0 0.0
2017-Sep-16 17:31N 40°38' W 074°08'0 0.0
2017-Sep-16 17:01N 40°38' W 074°08'0 0.0
2017-Sep-16 16:30N 40°38' W 074°08'0 0.0
2017-Sep-16 16:01N 40°38' W 074°08'0 0.0
2017-Sep-16 15:30N 40°38' W 074°08'0 0.0
2017-Sep-16 15:01N 40°38' W 074°08'0 0.0
2017-Sep-16 14:30N 40°38' W 074°08'0 0.0
2017-Sep-16 14:01N 40°38' W 074°08'0 0.0
2017-Sep-16 13:31N 40°38' W 074°08'0 0.0
2017-Sep-16 13:01N 40°38' W 074°08'0 0.0
2017-Sep-16 12:30N 40°38' W 074°08'0 0.0
2017-Sep-16 12:01N 40°38' W 074°08'0 0.0
2017-Sep-16 11:31N 40°38' W 074°08'0 0.0
2017-Sep-16 11:01N 40°38' W 074°08'0 0.0
2017-Sep-16 10:30N 40°38' W 074°08'0 0.0
2017-Sep-16 10:01N 40°38' W 074°08'1 1.9
2017-Sep-16 09:30N 40°39' W 074°07'0 0.2
2017-Sep-16 09:01N 40°39' W 074°07'2 3.7
2017-Sep-16 08:31N 40°39' W 074°04'2 3.8
2017-Sep-16 08:00N 40°40' W 074°02'1 1.6
2017-Sep-16 07:31N 40°40' W 074°01'0 0.6
2017-Sep-16 07:01N 40°40' W 074°01'0 0.0
2017-Sep-16 06:29N 40°40' W 074°01'0 0.0
2017-Sep-16 05:59N 40°40' W 074°01'0 0.0
2017-Sep-16 05:29N 40°40' W 074°01'0 0.0
2017-Sep-16 04:59N 40°40' W 074°01'0 0.0
2017-Sep-16 04:29N 40°40' W 074°01'0 0.0
2017-Sep-16 03:59N 40°40' W 074°01'0 0.0
2017-Sep-16 03:29N 40°40' W 074°01'0 0.0
2017-Sep-16 02:59N 40°40' W 074°01'0 0.0
2017-Sep-16 02:29N 40°40' W 074°01'0 0.0
2017-Sep-16 01:59N 40°40' W 074°01'0 0.0
2017-Sep-16 01:29N 40°40' W 074°01'0 0.0
2017-Sep-16 00:59N 40°40' W 074°01'0 0.0
2017-Sep-16 00:29N 40°40' W 074°01'0 0.0
2017-Sep-15 23:59N 40°40' W 074°01'0 0.0
2017-Sep-15 23:29N 40°40' W 074°01'0 0.0
2017-Sep-15 22:59N 40°40' W 074°01'0 0.0
2017-Sep-15 22:29N 40°40' W 074°01'0 0.0
2017-Sep-15 21:59N 40°40' W 074°01'0 0.0
2017-Sep-15 21:29N 40°40' W 074°01'0 0.0
2017-Sep-15 20:59N 40°40' W 074°01'0 0.0
2017-Sep-15 20:29N 40°40' W 074°01'0 0.0
2017-Sep-15 19:59N 40°40' W 074°01'0 0.0
2017-Sep-15 19:29N 40°40' W 074°01'0 0.0
2017-Sep-15 18:59N 40°40' W 074°01'0 0.0
2017-Sep-15 18:29N 40°40' W 074°01'0 0.0
2017-Sep-15 17:59N 40°40' W 074°01'0 0.0
2017-Sep-15 17:29N 40°40' W 074°01'0 0.0
2017-Sep-15 16:59N 40°40' W 074°01'0 0.0
2017-Sep-15 16:29N 40°40' W 074°01'0 0.0
2017-Sep-15 15:59N 40°40' W 074°01'0 0.0
2017-Sep-15 15:29N 40°40' W 074°01'0 0.0
2017-Sep-15 14:59N 40°40' W 074°01'0 0.0
2017-Sep-15 14:29N 40°40' W 074°01'0 0.0
2017-Sep-15 13:59N 40°40' W 074°01'0 0.0
2017-Sep-15 13:29N 40°40' W 074°01'0 0.0
2017-Sep-15 12:59N 40°40' W 074°01'0 0.0
2017-Sep-15 12:29N 40°40' W 074°01'0 0.0
2017-Sep-15 11:59N 40°40' W 074°01'0 0.0
2017-Sep-15 11:29N 40°40' W 074°01'0 0.0
2017-Sep-15 10:59N 40°40' W 074°01'0 0.0
2017-Sep-15 10:29N 40°40' W 074°01'0 0.0
2017-Sep-15 09:59N 40°40' W 074°01'0 0.0
2017-Sep-15 09:29N 40°40' W 074°01'0 0.0
2017-Sep-15 08:59N 40°40' W 074°01'0 0.0
2017-Sep-15 08:29N 40°40' W 074°01'0 0.0
2017-Sep-15 07:59N 40°40' W 074°01'0 0.0
2017-Sep-15 07:29N 40°40' W 074°01'0 0.0
2017-Sep-15 06:59N 40°40' W 074°01'0 0.0
2017-Sep-15 06:29N 40°40' W 074°01'0 0.0
2017-Sep-15 05:59N 40°40' W 074°01'0 0.0
2017-Sep-15 05:29N 40°40' W 074°01'0 0.0
2017-Sep-15 04:59N 40°40' W 074°01'0 0.0
2017-Sep-15 04:29N 40°40' W 074°01'0 0.0
2017-Sep-15 03:59N 40°40' W 074°01'0 0.0
2017-Sep-15 03:29N 40°40' W 074°01'0 0.0
2017-Sep-15 02:59N 40°40' W 074°01'0 0.0
2017-Sep-15 02:29N 40°40' W 074°01'0 0.0
2017-Sep-15 01:59N 40°40' W 074°01'0 0.0
2017-Sep-15 01:29N 40°40' W 074°01'0 0.0
2017-Sep-15 00:59N 40°40' W 074°01'0 0.0
2017-Sep-15 00:29N 40°40' W 074°01'0 0.0
2017-Sep-14 23:59N 40°40' W 074°01'0 0.0
2017-Sep-14 23:29N 40°40' W 074°01'0 0.0
2017-Sep-14 22:59N 40°40' W 074°01'0 0.0
2017-Sep-14 22:29N 40°40' W 074°01'0 0.0
2017-Sep-14 21:59N 40°40' W 074°01'0 0.0
2017-Sep-14 21:29N 40°40' W 074°01'0 0.0
2017-Sep-14 20:59N 40°40' W 074°01'0 0.0
2017-Sep-14 20:29N 40°40' W 074°01'0 0.0
2017-Sep-14 19:59N 40°40' W 074°01'0 0.0
2017-Sep-14 19:29N 40°40' W 074°01'0 0.0
2017-Sep-14 18:59N 40°40' W 074°01'0 0.0
2017-Sep-14 18:29N 40°40' W 074°01'0 0.0
2017-Sep-14 17:59N 40°40' W 074°01'0 0.0
2017-Sep-14 17:29N 40°40' W 074°01'0 0.0
2017-Sep-14 16:59N 40°40' W 074°01'1 1.4
2017-Sep-14 16:30N 40°40' W 074°02'1 1.4
2017-Sep-14 15:58N 40°40' W 074°02'0 0.0
2017-Sep-14 15:28N 40°40' W 074°02'0 0.0
2017-Sep-14 14:58N 40°40' W 074°02'0 0.0
2017-Sep-14 14:28N 40°40' W 074°02'0 0.0
2017-Sep-14 13:59N 40°40' W 074°02'0 0.0
2017-Sep-14 13:28N 40°40' W 074°02'0 0.0
2017-Sep-14 12:58N 40°40' W 074°02'0 0.0
2017-Sep-14 12:28N 40°40' W 074°02'0 0.0
2017-Sep-14 11:58N 40°40' W 074°02'0 0.0
2017-Sep-14 11:28N 40°40' W 074°02'0 0.0
2017-Sep-14 10:58N 40°40' W 074°02'0 0.0
2017-Sep-14 10:29N 40°40' W 074°02'1 2.3
2017-Sep-14 10:00N 40°40' W 074°01'0 0.0
2017-Sep-14 09:30N 40°40' W 074°01'0 0.0
2017-Sep-14 09:00N 40°40' W 074°01'0 0.0
2017-Sep-14 08:30N 40°40' W 074°01'0 0.0
2017-Sep-14 08:00N 40°40' W 074°01'0 0.0
2017-Sep-14 07:30N 40°40' W 074°01'0 0.0
2017-Sep-14 07:00N 40°40' W 074°01'0 0.0
2017-Sep-14 06:30N 40°40' W 074°01'0 0.0
2017-Sep-14 06:00N 40°40' W 074°01'0 0.0
2017-Sep-14 05:30N 40°40' W 074°01'0 0.0
2017-Sep-14 05:00N 40°40' W 074°01'0 0.0
2017-Sep-14 04:30N 40°40' W 074°01'0 0.0
2017-Sep-14 04:00N 40°40' W 074°01'0 0.0
2017-Sep-14 03:30N 40°40' W 074°01'0 0.0
2017-Sep-14 03:00N 40°40' W 074°01'0 0.0
2017-Sep-14 02:30N 40°40' W 074°01'0 0.0
2017-Sep-14 02:00N 40°40' W 074°01'0 0.0
2017-Sep-14 01:30N 40°40' W 074°01'0 0.0
2017-Sep-14 01:00N 40°40' W 074°01'0 0.0
2017-Sep-14 00:30N 40°40' W 074°01'0 0.0
2017-Sep-14 00:00N 40°40' W 074°01'0 0.0
2017-Sep-13 23:30N 40°40' W 074°01'0 0.0
2017-Sep-13 23:00N 40°40' W 074°01'1 2.0
2017-Sep-13 22:28N 40°40' W 074°02'0 0.0
2017-Sep-13 21:58N 40°40' W 074°02'0 0.2
2017-Sep-13 21:28N 40°40' W 074°02'0 0.2
2017-Sep-13 20:58N 40°40' W 074°02'0 0.0
2017-Sep-13 20:28N 40°40' W 074°02'0 0.0
2017-Sep-13 19:58N 40°40' W 074°02'0 0.0
2017-Sep-13 19:28N 40°40' W 074°02'0 0.0
2017-Sep-13 18:58N 40°40' W 074°02'0 0.0
2017-Sep-13 18:28N 40°40' W 074°02'0 0.0
2017-Sep-13 17:58N 40°40' W 074°02'0 0.0
2017-Sep-13 17:28N 40°40' W 074°02'0 0.0
2017-Sep-13 16:58N 40°40' W 074°02'0 0.0
2017-Sep-13 16:28N 40°40' W 074°02'0 0.2
2017-Sep-13 15:58N 40°40' W 074°02'0 0.1
2017-Sep-13 15:28N 40°40' W 074°02'0 0.1
2017-Sep-13 15:01N 40°40' W 074°02'0 0.0
2017-Sep-13 14:31N 40°40' W 074°02'0 0.0
2017-Sep-13 13:58N 40°40' W 074°02'0 0.0
2017-Sep-13 13:28N 40°40' W 074°02'0 0.0
2017-Sep-13 12:58N 40°40' W 074°02'0 0.0
2017-Sep-13 12:28N 40°40' W 074°02'0 0.0
2017-Sep-13 11:58N 40°40' W 074°02'0 0.0
2017-Sep-13 11:28N 40°40' W 074°02'0 0.0
2017-Sep-13 10:58N 40°40' W 074°02'0 0.0
2017-Sep-13 10:31N 40°40' W 074°02'1 2.0
2017-Sep-13 09:58N 40°40' W 074°01'0 0.0
2017-Sep-13 09:28N 40°40' W 074°01'0 0.0
2017-Sep-13 08:58N 40°40' W 074°01'0 0.0
2017-Sep-13 08:28N 40°40' W 074°01'0 0.0
2017-Sep-13 07:58N 40°40' W 074°01'0 0.0
2017-Sep-13 07:28N 40°40' W 074°01'0 0.0
2017-Sep-13 06:58N 40°40' W 074°01'0 0.0
2017-Sep-13 06:28N 40°40' W 074°01'0 0.0
2017-Sep-13 05:58N 40°40' W 074°01'0 0.0
2017-Sep-13 05:28N 40°40' W 074°01'0 0.0
2017-Sep-13 04:58N 40°40' W 074°01'0 0.0
2017-Sep-13 04:28N 40°40' W 074°01'0 0.0
2017-Sep-13 03:58N 40°40' W 074°01'0 0.0
2017-Sep-13 03:28N 40°40' W 074°01'0 0.0
2017-Sep-13 02:58N 40°40' W 074°01'0 0.0
2017-Sep-13 02:28N 40°40' W 074°01'0 0.0
2017-Sep-13 01:58N 40°40' W 074°01'1 2.1
2017-Sep-13 01:31N 40°40' W 074°02'1 1.7
2017-Sep-13 00:59N 40°40' W 074°01'0 0.0
2017-Sep-13 00:29N 40°40' W 074°01'0 0.0
2017-Sep-12 23:59N 40°40' W 074°01'0 0.0
2017-Sep-12 23:29N 40°40' W 074°01'0 0.0
2017-Sep-12 22:59N 40°40' W 074°01'0 0.0
2017-Sep-12 22:29N 40°40' W 074°01'0 0.0
2017-Sep-12 21:59N 40°40' W 074°01'0 0.0
2017-Sep-12 21:29N 40°40' W 074°01'0 0.0
2017-Sep-12 20:59N 40°40' W 074°01'0 0.0
2017-Sep-12 20:29N 40°40' W 074°01'0 0.0
2017-Sep-12 19:59N 40°40' W 074°01'0 0.0
2017-Sep-12 19:29N 40°40' W 074°01'0 0.0
2017-Sep-12 18:59N 40°40' W 074°01'0 0.0
2017-Sep-12 18:29N 40°40' W 074°01'0 0.0
2017-Sep-12 17:59N 40°40' W 074°01'0 0.0
2017-Sep-12 17:29N 40°40' W 074°01'0 0.0
2017-Sep-12 16:59N 40°40' W 074°01'0 0.0
2017-Sep-12 16:29N 40°40' W 074°01'0 0.0
2017-Sep-12 15:59N 40°40' W 074°01'0 0.0
2017-Sep-12 15:29N 40°40' W 074°01'0 0.0
2017-Sep-12 14:59N 40°40' W 074°01'0 0.0
2017-Sep-12 14:29N 40°40' W 074°01'0 0.0
2017-Sep-12 13:59N 40°40' W 074°01'0 0.0
2017-Sep-12 13:29N 40°40' W 074°01'0 0.0
2017-Sep-12 12:59N 40°40' W 074°01'0 0.0
2017-Sep-12 12:29N 40°40' W 074°01'0 0.0
2017-Sep-12 11:59N 40°40' W 074°01'0 0.0
2017-Sep-12 11:29N 40°40' W 074°01'0 0.0
2017-Sep-12 10:59N 40°40' W 074°01'0 0.0
2017-Sep-12 10:29N 40°40' W 074°01'0 0.0
2017-Sep-12 09:59N 40°40' W 074°01'0 0.0
2017-Sep-12 09:29N 40°40' W 074°01'0 0.0
2017-Sep-12 08:59N 40°40' W 074°01'0 0.0
2017-Sep-12 08:29N 40°40' W 074°01'0 0.0
2017-Sep-12 07:59N 40°40' W 074°01'0 0.0
2017-Sep-12 07:29N 40°40' W 074°01'0 0.0
2017-Sep-12 06:59N 40°40' W 074°01'0 0.0
2017-Sep-12 06:29N 40°40' W 074°01'0 0.0
2017-Sep-12 05:59N 40°40' W 074°01'0 0.0
2017-Sep-12 05:29N 40°40' W 074°01'0 0.0
2017-Sep-12 04:59N 40°40' W 074°01'0 0.0
2017-Sep-12 04:29N 40°40' W 074°01'0 0.0
2017-Sep-12 03:59N 40°40' W 074°01'0 0.0
2017-Sep-12 03:29N 40°40' W 074°01'0 0.0
2017-Sep-12 02:59N 40°40' W 074°01'0 0.0
2017-Sep-12 02:29N 40°40' W 074°01'0 0.0
2017-Sep-12 01:59N 40°40' W 074°01'0 0.0
2017-Sep-12 01:29N 40°40' W 074°01'0 0.9
2017-Sep-12 01:01N 40°40' W 074°01'4 8.2
2017-Sep-12 00:31N 40°39' W 074°06'1 2.4
2017-Sep-12 00:00N 40°38' W 074°08'0 0.9
2017-Sep-11 23:31N 40°39' W 074°07'3 6.7
2017-Sep-11 23:00N 40°39' W 074°03'0 0.0
2017-Sep-11 22:30N 40°39' W 074°03'0 0.1
2017-Sep-11 22:00N 40°39' W 074°03'0 0.0
2017-Sep-11 21:30N 40°39' W 074°03'0 0.0
2017-Sep-11 21:00N 40°39' W 074°03'1 2.0
2017-Sep-11 20:30N 40°40' W 074°02'1 1.0
2017-Sep-11 19:30N 40°40' W 074°01'0 0.0
2017-Sep-11 19:00N 40°40' W 074°01'0 0.0
2017-Sep-11 18:30N 40°40' W 074°01'0 0.0
2017-Sep-11 18:00N 40°40' W 074°01'0 0.0
2017-Sep-11 17:30N 40°40' W 074°01'0 0.0
2017-Sep-11 17:00N 40°40' W 074°01'0 0.0
2017-Sep-11 16:30N 40°40' W 074°01'0 0.0
2017-Sep-11 16:00N 40°40' W 074°01'0 0.0
2017-Sep-11 15:30N 40°40' W 074°01'0 0.0
2017-Sep-11 15:00N 40°40' W 074°01'0 0.0
2017-Sep-11 14:30N 40°40' W 074°01'0 0.0
2017-Sep-11 14:00N 40°40' W 074°01'0 0.0
2017-Sep-11 13:30N 40°40' W 074°01'0 0.0
2017-Sep-11 13:00N 40°40' W 074°01'0 0.0
2017-Sep-11 12:30N 40°40' W 074°01'0 0.0
2017-Sep-11 12:00N 40°40' W 074°01'0 0.0
2017-Sep-11 11:30N 40°40' W 074°01'0 0.0
2017-Sep-11 11:00N 40°40' W 074°01'0 0.0
2017-Sep-11 10:30N 40°40' W 074°01'0 0.0
2017-Sep-11 10:00N 40°40' W 074°01'0 0.0
2017-Sep-11 09:30N 40°40' W 074°01'0 0.0
2017-Sep-11 09:00N 40°40' W 074°01'0 0.0
2017-Sep-11 08:30N 40°40' W 074°01'0 0.0
2017-Sep-11 08:00N 40°40' W 074°01'0 0.0
2017-Sep-11 07:30N 40°40' W 074°01'0 0.0
2017-Sep-11 07:00N 40°40' W 074°01'0 0.0
2017-Sep-11 06:30N 40°40' W 074°01'0 0.0
2017-Sep-11 06:00N 40°40' W 074°01'0 0.0
2017-Sep-11 05:30N 40°40' W 074°01'0 0.0
2017-Sep-11 05:00N 40°40' W 074°01'0 0.0
2017-Sep-11 04:30N 40°40' W 074°01'0 0.0
2017-Sep-11 04:00N 40°40' W 074°01'0 0.0
2017-Sep-11 03:30N 40°40' W 074°01'0 0.0
2017-Sep-11 03:00N 40°40' W 074°01'0 0.0
2017-Sep-11 02:30N 40°40' W 074°01'0 0.0
2017-Sep-11 02:00N 40°40' W 074°01'0 0.0
2017-Sep-11 01:30N 40°40' W 074°01'0 0.0
2017-Sep-11 01:00N 40°40' W 074°01'0 0.0
2017-Sep-11 00:30N 40°40' W 074°01'0 0.0
2017-Sep-11 00:00N 40°40' W 074°01'0 0.0
2017-Sep-10 23:30N 40°40' W 074°01'0 0.0
2017-Sep-10 23:00N 40°40' W 074°01'0 0.0
2017-Sep-10 22:30N 40°40' W 074°01'0 0.0
2017-Sep-10 22:00N 40°40' W 074°01'0 0.0
2017-Sep-10 21:30N 40°40' W 074°01'0 0.0
2017-Sep-10 21:00N 40°40' W 074°01'0 0.0
2017-Sep-10 20:30N 40°40' W 074°01'0 0.0
2017-Sep-10 20:00N 40°40' W 074°01'0 0.0
2017-Sep-10 19:30N 40°40' W 074°01'0 0.0
2017-Sep-10 19:00N 40°40' W 074°01'0 0.0
2017-Sep-10 18:30N 40°40' W 074°01'0 0.0
2017-Sep-10 18:00N 40°40' W 074°01'0 0.0
2017-Sep-10 17:30N 40°40' W 074°01'0 0.0
2017-Sep-10 17:00N 40°40' W 074°01'0 0.0
2017-Sep-10 16:30N 40°40' W 074°01'0 0.0
2017-Sep-10 16:00N 40°40' W 074°01'0 0.0
2017-Sep-10 15:30N 40°40' W 074°01'0 0.0
2017-Sep-10 15:00N 40°40' W 074°01'0 0.0
2017-Sep-10 14:00N 40°40' W 074°01'0 0.0
2017-Sep-10 13:30N 40°40' W 074°01'0 0.0
2017-Sep-10 13:00N 40°40' W 074°01'0 0.0
2017-Sep-10 12:30N 40°40' W 074°01'0 0.0
2017-Sep-10 12:00N 40°40' W 074°01'0 0.0
2017-Sep-10 11:30N 40°40' W 074°01'0 0.0
2017-Sep-10 10:57N 40°40' W 074°01'0 0.0
2017-Sep-10 10:30N 40°40' W 074°01'0 0.0
2017-Sep-10 10:00N 40°40' W 074°01'0 0.0
2017-Sep-10 09:30N 40°40' W 074°01'0 0.0
2017-Sep-10 09:00N 40°40' W 074°01'0 0.0
2017-Sep-10 08:30N 40°40' W 074°01'0 0.0
2017-Sep-10 08:00N 40°40' W 074°01'0 0.0
2017-Sep-10 07:30N 40°40' W 074°01'0 0.0
2017-Sep-10 07:00N 40°40' W 074°01'0 0.0
2017-Sep-10 06:30N 40°40' W 074°01'0 0.0
2017-Sep-10 06:00N 40°40' W 074°01'0 0.0
2017-Sep-10 05:30N 40°40' W 074°01'0 0.0
2017-Sep-10 05:00N 40°40' W 074°01'0 0.0
2017-Sep-10 04:30N 40°40' W 074°01'0 0.0
2017-Sep-10 04:00N 40°40' W 074°01'0 0.0
2017-Sep-10 03:30N 40°40' W 074°01'0 0.0
2017-Sep-10 03:00N 40°40' W 074°01'0 0.0
2017-Sep-10 02:30N 40°40' W 074°01'0 0.0
2017-Sep-10 02:00N 40°40' W 074°01'0 0.0
2017-Sep-10 01:30N 40°40' W 074°01'0 0.0
2017-Sep-10 01:00N 40°40' W 074°01'0 0.0
2017-Sep-10 00:30N 40°40' W 074°01'0 0.0
2017-Sep-10 00:00N 40°40' W 074°01'0 0.0
2017-Sep-09 23:30N 40°40' W 074°01'0 0.0
2017-Sep-09 23:00N 40°40' W 074°01'0 0.0
2017-Sep-09 22:30N 40°40' W 074°01'0 0.0
2017-Sep-09 22:00N 40°40' W 074°01'0 0.0
2017-Sep-09 21:30N 40°40' W 074°01'0 0.0
2017-Sep-09 21:00N 40°40' W 074°01'0 0.0
2017-Sep-09 20:30N 40°40' W 074°01'0 0.0
2017-Sep-09 20:00N 40°40' W 074°01'0 0.0
2017-Sep-09 19:30N 40°40' W 074°01'0 0.0
2017-Sep-09 19:00N 40°40' W 074°01'0 0.0
2017-Sep-09 18:30N 40°40' W 074°01'0 0.0
2017-Sep-09 18:00N 40°40' W 074°01'0 0.0
2017-Sep-09 17:30N 40°40' W 074°01'0 0.0
2017-Sep-09 17:00N 40°40' W 074°01'0 0.0
2017-Sep-09 16:30N 40°40' W 074°01'0 0.0
2017-Sep-09 16:00N 40°40' W 074°01'0 0.0
2017-Sep-09 15:30N 40°40' W 074°01'0 0.0
2017-Sep-09 15:00N 40°40' W 074°01'0 0.0
2017-Sep-09 14:30N 40°40' W 074°01'0 0.0
2017-Sep-09 14:00N 40°40' W 074°01'0 0.0
2017-Sep-09 13:30N 40°40' W 074°01'0 0.0
2017-Sep-09 13:00N 40°40' W 074°01'  
Track history (hours):
 
Tides and Currents Weather Stations Pressure Air Temp Water Temp Dewpoint Dewpoint Depression Visibility Wind Speed Wind Dir Waves Ship Positions

Joanne Reinauer

Owner: REINAUER TRANSPORTATION CO.LLC., STATEN ISLAND, NY. More information available from US FCC via Universal Licensing System and Coast Guard Vessel Documentation Center.

Last reported at 2017-Sep-19 12:53 UTC. Time now 2017-Sep-22 18:58 UTC.
Position N 41°47' W 071°22'.

Length 117 m; draft 4.3 m.

Type: . MMSI: 366238690.

Date/timePositionNaut miles runAvg speedWind from/ knotsBaromVisibWave heightAir tempDewpointWater temp
2017-Sep-19 12:53N 41°47' W 071°22'0 0.2
2017-Sep-19 12:30N 41°47' W 071°22'0 0.2
2017-Sep-19 12:00N 41°47' W 071°22'0 0.0
2017-Sep-19 11:30N 41°47' W 071°22'0 0.0
2017-Sep-19 11:00N 41°47' W 071°22'0 0.9
2017-Sep-19 10:30N 41°47' W 071°23'0 0.0
2017-Sep-18 22:36N 41°47' W 071°23'0 2.8
2017-Sep-18 22:30N 41°47' W 071°22'1 1.7
2017-Sep-18 21:51N 41°48' W 071°23'1 1.3
2017-Sep-18 20:56N 41°47' W 071°22'2 5.6
2017-Sep-18 20:30N 41°44' W 071°22'4 7.8
2017-Sep-18 20:00N 41°41' W 071°19'4 7.8
2017-Sep-18 19:31N 41°38' W 071°18'4 7.9
2017-Sep-18 19:00N 41°34' W 071°19'42 6.4
2017-Sep-18 12:27N 41°14' W 072°08'3 5.5
2017-Sep-18 11:57N 41°13' W 072°12'3 5.9
2017-Sep-18 11:25N 41°12' W 072°16'2 6.0
2017-Sep-18 11:00N 41°11' W 072°19'3 6.2
2017-Sep-18 10:30N 41°10' W 072°23'3 6.7
2017-Sep-18 10:00N 41°09' W 072°27'3 6.7
2017-Sep-18 09:30N 41°08' W 072°32'4 7.4
2017-Sep-18 09:00N 41°08' W 072°36'4 8.0
2017-Sep-18 08:30N 41°07' W 072°42'4 8.3
2017-Sep-18 08:00N 41°06' W 072°47'44 8.3
2017-Sep-18 02:40N 40°53' W 073°43'1 7.6
2017-Sep-18 02:29N 40°52' W 073°45'4 7.1
2017-Sep-18 01:51N 40°48' W 073°47'2 6.9
2017-Sep-18 01:30N 40°48' W 073°51'3 6.4
2017-Sep-18 00:59N 40°47' W 073°55'4 7.9
2017-Sep-18 00:31N 40°44' W 073°58'4 8.2
2017-Sep-18 00:00N 40°41' W 074°01'4 8.5
2017-Sep-17 23:30N 40°39' W 074°06'4 7.8
2017-Sep-17 23:00N 40°39' W 074°11'3 5.6
2017-Sep-17 22:30N 40°36' W 074°12'2 5.0
2017-Sep-17 22:00N 40°34' W 074°13'1 1.8
2017-Sep-17 21:23N 40°33' W 074°14'0 0.1
2017-Sep-17 20:56N 40°33' W 074°14'0 0.1
2017-Sep-17 20:29N 40°34' W 074°14'0 0.0
2017-Sep-17 19:59N 40°34' W 074°14'0 0.0
2017-Sep-17 19:28N 40°34' W 074°14'0 0.0
2017-Sep-17 18:46N 40°34' W 074°14'0 0.0
2017-Sep-17 18:29N 40°34' W 074°14'0 0.0
2017-Sep-17 17:53N 40°34' W 074°14'0 0.0
2017-Sep-17 17:30N 40°34' W 074°14'3 6.0
2017-Sep-17 17:00N 40°36' W 074°12'3 6.8
2017-Sep-17 16:30N 40°39' W 074°10'4 7.5
2017-Sep-17 16:00N 40°39' W 074°05'2 3.6
2017-Sep-17 15:28N 40°40' W 074°02'0 0.0
2017-Sep-17 14:58N 40°40' W 074°02'0 0.0
2017-Sep-17 14:28N 40°40' W 074°02'0 0.1
2017-Sep-17 13:58N 40°40' W 074°02'0 0.0
2017-Sep-17 13:28N 40°40' W 074°02'0 0.1
2017-Sep-17 12:58N 40°40' W 074°02'0 0.2
2017-Sep-17 12:28N 40°40' W 074°02'0 0.1
2017-Sep-17 11:58N 40°40' W 074°02'0 0.0
2017-Sep-17 11:28N 40°40' W 074°02'0 0.0
2017-Sep-17 10:58N 40°40' W 074°02'0 0.0
2017-Sep-17 10:28N 40°40' W 074°02'0 0.0
2017-Sep-17 09:58N 40°40' W 074°02'0 0.0
2017-Sep-17 09:30N 40°40' W 074°02'1 1.7
2017-Sep-17 08:59N 40°40' W 074°01'0 0.0
2017-Sep-17 08:29N 40°40' W 074°01'0 0.0
2017-Sep-17 07:59N 40°40' W 074°01'0 0.0
2017-Sep-17 07:29N 40°40' W 074°01'0 0.0
2017-Sep-17 06:59N 40°40' W 074°01'0 0.0
2017-Sep-17 06:29N 40°40' W 074°01'0 0.0
2017-Sep-17 05:59N 40°40' W 074°01'0 0.0
2017-Sep-17 05:30N 40°40' W 074°01'0 0.0
2017-Sep-17 04:59N 40°40' W 074°01'0 0.0
2017-Sep-17 04:29N 40°40' W 074°01'1 1.6
2017-Sep-17 04:01N 40°40' W 074°02'4 7.7
2017-Sep-17 03:31N 40°39' W 074°06'4 8.5
2017-Sep-17 03:00N 40°38' W 074°12'4 7.9
2017-Sep-17 02:28N 40°34' W 074°13'1 0.7
2017-Sep-17 00:40N 40°34' W 074°14'0 0.0
2017-Sep-16 23:33N 40°33' W 074°14'0 0.1
2017-Sep-16 23:23N 40°33' W 074°14'0 0.0
2017-Sep-16 23:00N 40°33' W 074°14'1 2.5
2017-Sep-16 22:30N 40°34' W 074°13'3 5.0
2017-Sep-16 22:00N 40°36' W 074°12'3 5.6
2017-Sep-16 21:30N 40°39' W 074°11'3 6.0
2017-Sep-16 21:01N 40°39' W 074°07'0 0.2
2017-Sep-16 20:31N 40°39' W 074°07'1 2.0
2017-Sep-16 20:01N 40°38' W 074°08'0 0.0
2017-Sep-16 19:31N 40°38' W 074°08'0 0.0
2017-Sep-16 19:00N 40°38' W 074°08'0 0.0
2017-Sep-16 18:31N 40°38' W 074°08'0 0.0
2017-Sep-16 18:00N 40°38' W 074°08'0 0.0
2017-Sep-16 17:31N 40°38' W 074°08'0 0.0
2017-Sep-16 17:01N 40°38' W 074°08'0 0.0
2017-Sep-16 16:30N 40°38' W 074°08'0 0.0
2017-Sep-16 16:01N 40°38' W 074°08'0 0.0
2017-Sep-16 15:30N 40°38' W 074°08'0 0.0
2017-Sep-16 15:01N 40°38' W 074°08'0 0.0
2017-Sep-16 14:30N 40°38' W 074°08'0 0.0
2017-Sep-16 14:01N 40°38' W 074°08'0 0.0
2017-Sep-16 13:31N 40°38' W 074°08'0 0.0
2017-Sep-16 13:01N 40°38' W 074°08'0 0.0
2017-Sep-16 12:30N 40°38' W 074°08'0 0.0
2017-Sep-16 12:01N 40°38' W 074°08'0 0.0
2017-Sep-16 11:31N 40°38' W 074°08'0 0.0
2017-Sep-16 11:01N 40°38' W 074°08'0 0.0
2017-Sep-16 10:30N 40°38' W 074°08'0 0.0
2017-Sep-16 10:01N 40°38' W 074°08'1 1.9
2017-Sep-16 09:30N 40°39' W 074°07'0 0.2
2017-Sep-16 09:01N 40°39' W 074°07'2 3.7
2017-Sep-16 08:31N 40°39' W 074°04'2 3.8
2017-Sep-16 08:00N 40°40' W 074°02'1 1.6
2017-Sep-16 07:31N 40°40' W 074°01'0 0.6
2017-Sep-16 07:01N 40°40' W 074°01'0 0.0
2017-Sep-16 06:29N 40°40' W 074°01'0 0.0
2017-Sep-16 05:59N 40°40' W 074°01'0 0.0
2017-Sep-16 05:29N 40°40' W 074°01'0 0.0
2017-Sep-16 04:59N 40°40' W 074°01'0 0.0
2017-Sep-16 04:29N 40°40' W 074°01'0 0.0
2017-Sep-16 03:59N 40°40' W 074°01'0 0.0
2017-Sep-16 03:29N 40°40' W 074°01'0 0.0
2017-Sep-16 02:59N 40°40' W 074°01'0 0.0
2017-Sep-16 02:29N 40°40' W 074°01'0 0.0
2017-Sep-16 01:59N 40°40' W 074°01'0 0.0
2017-Sep-16 01:29N 40°40' W 074°01'0 0.0
2017-Sep-16 00:59N 40°40' W 074°01'0 0.0
2017-Sep-16 00:29N 40°40' W 074°01'0 0.0
2017-Sep-15 23:59N 40°40' W 074°01'0 0.0
2017-Sep-15 23:29N 40°40' W 074°01'0 0.0
2017-Sep-15 22:59N 40°40' W 074°01'0 0.0
2017-Sep-15 22:29N 40°40' W 074°01'0 0.0
2017-Sep-15 21:59N 40°40' W 074°01'0 0.0
2017-Sep-15 21:29N 40°40' W 074°01'0 0.0
2017-Sep-15 20:59N 40°40' W 074°01'0 0.0
2017-Sep-15 20:29N 40°40' W 074°01'0 0.0
2017-Sep-15 19:59N 40°40' W 074°01'0 0.0
2017-Sep-15 19:29N 40°40' W 074°01'0 0.0
2017-Sep-15 18:59N 40°40' W 074°01'0 0.0
2017-Sep-15 18:29N 40°40' W 074°01'0 0.0
2017-Sep-15 17:59N 40°40' W 074°01'0 0.0
2017-Sep-15 17:29N 40°40' W 074°01'0 0.0
2017-Sep-15 16:59N 40°40' W 074°01'0 0.0
2017-Sep-15 16:29N 40°40' W 074°01'0 0.0
2017-Sep-15 15:59N 40°40' W 074°01'0 0.0
2017-Sep-15 15:29N 40°40' W 074°01'0 0.0
2017-Sep-15 14:59N 40°40' W 074°01'0 0.0
2017-Sep-15 14:29N 40°40' W 074°01'0 0.0
2017-Sep-15 13:59N 40°40' W 074°01'0 0.0
2017-Sep-15 13:29N 40°40' W 074°01'0 0.0
2017-Sep-15 12:59N 40°40' W 074°01'0 0.0
2017-Sep-15 12:29N 40°40' W 074°01'0 0.0
2017-Sep-15 11:59N 40°40' W 074°01'0 0.0
2017-Sep-15 11:29N 40°40' W 074°01'0 0.0
2017-Sep-15 10:59N 40°40' W 074°01'0 0.0
2017-Sep-15 10:29N 40°40' W 074°01'0 0.0
2017-Sep-15 09:59N 40°40' W 074°01'0 0.0
2017-Sep-15 09:29N 40°40' W 074°01'0 0.0
2017-Sep-15 08:59N 40°40' W 074°01'0 0.0
2017-Sep-15 08:29N 40°40' W 074°01'0 0.0
2017-Sep-15 07:59N 40°40' W 074°01'0 0.0
2017-Sep-15 07:29N 40°40' W 074°01'0 0.0
2017-Sep-15 06:59N 40°40' W 074°01'0 0.0
2017-Sep-15 06:29N 40°40' W 074°01'0 0.0
2017-Sep-15 05:59N 40°40' W 074°01'0 0.0
2017-Sep-15 05:29N 40°40' W 074°01'0 0.0
2017-Sep-15 04:59N 40°40' W 074°01'0 0.0
2017-Sep-15 04:29N 40°40' W 074°01'0 0.0
2017-Sep-15 03:59N 40°40' W 074°01'0 0.0
2017-Sep-15 03:29N 40°40' W 074°01'0 0.0
2017-Sep-15 02:59N 40°40' W 074°01'0 0.0
2017-Sep-15 02:29N 40°40' W 074°01'0 0.0
2017-Sep-15 01:59N 40°40' W 074°01'0 0.0
2017-Sep-15 01:29N 40°40' W 074°01'0 0.0
2017-Sep-15 00:59N 40°40' W 074°01'0 0.0
2017-Sep-15 00:29N 40°40' W 074°01'0 0.0
2017-Sep-14 23:59N 40°40' W 074°01'0 0.0
2017-Sep-14 23:29N 40°40' W 074°01'0 0.0
2017-Sep-14 22:59N 40°40' W 074°01'0 0.0
2017-Sep-14 22:29N 40°40' W 074°01'0 0.0
2017-Sep-14 21:59N 40°40' W 074°01'0 0.0
2017-Sep-14 21:29N 40°40' W 074°01'0 0.0
2017-Sep-14 20:59N 40°40' W 074°01'0 0.0
2017-Sep-14 20:29N 40°40' W 074°01'0 0.0
2017-Sep-14 19:59N 40°40' W 074°01'0 0.0
2017-Sep-14 19:29N 40°40' W 074°01'0 0.0
2017-Sep-14 18:59N 40°40' W 074°01'0 0.0
2017-Sep-14 18:29N 40°40' W 074°01'0 0.0
2017-Sep-14 17:59N 40°40' W 074°01'0 0.0
2017-Sep-14 17:29N 40°40' W 074°01'0 0.0
2017-Sep-14 16:59N 40°40' W 074°01'1 1.4
2017-Sep-14 16:30N 40°40' W 074°02'1 1.4
2017-Sep-14 15:58N 40°40' W 074°02'0 0.0
2017-Sep-14 15:28N 40°40' W 074°02'0 0.0
2017-Sep-14 14:58N 40°40' W 074°02'0 0.0
2017-Sep-14 14:28N 40°40' W 074°02'0 0.0
2017-Sep-14 13:59N 40°40' W 074°02'0 0.0
2017-Sep-14 13:28N 40°40' W 074°02'0 0.0
2017-Sep-14 12:58N 40°40' W 074°02'0 0.0
2017-Sep-14 12:28N 40°40' W 074°02'0 0.0
2017-Sep-14 11:58N 40°40' W 074°02'0 0.0
2017-Sep-14 11:28N 40°40' W 074°02'0 0.0
2017-Sep-14 10:58N 40°40' W 074°02'0 0.0
2017-Sep-14 10:29N 40°40' W 074°02'1 2.3
2017-Sep-14 10:00N 40°40' W 074°01'0 0.0
2017-Sep-14 09:30N 40°40' W 074°01'0 0.0
2017-Sep-14 09:00N 40°40' W 074°01'0 0.0
2017-Sep-14 08:30N 40°40' W 074°01'0 0.0
2017-Sep-14 08:00N 40°40' W 074°01'0 0.0
2017-Sep-14 07:30N 40°40' W 074°01'0 0.0
2017-Sep-14 07:00N 40°40' W 074°01'0 0.0
2017-Sep-14 06:30N 40°40' W 074°01'0 0.0
2017-Sep-14 06:00N 40°40' W 074°01'0 0.0
2017-Sep-14 05:30N 40°40' W 074°01'0 0.0
2017-Sep-14 05:00N 40°40' W 074°01'0 0.0
2017-Sep-14 04:30N 40°40' W 074°01'0 0.0
2017-Sep-14 04:00N 40°40' W 074°01'0 0.0
2017-Sep-14 03:30N 40°40' W 074°01'0 0.0
2017-Sep-14 03:00N 40°40' W 074°01'0 0.0
2017-Sep-14 02:30N 40°40' W 074°01'0 0.0
2017-Sep-14 02:00N 40°40' W 074°01'0 0.0
2017-Sep-14 01:30N 40°40' W 074°01'0 0.0
2017-Sep-14 01:00N 40°40' W 074°01'0 0.0
2017-Sep-14 00:30N 40°40' W 074°01'0 0.0
2017-Sep-14 00:00N 40°40' W 074°01'0 0.0
2017-Sep-13 23:30N 40°40' W 074°01'0 0.0
2017-Sep-13 23:00N 40°40' W 074°01'1 2.0
2017-Sep-13 22:28N 40°40' W 074°02'0 0.0
2017-Sep-13 21:58N 40°40' W 074°02'0 0.2
2017-Sep-13 21:28N 40°40' W 074°02'0 0.2
2017-Sep-13 20:58N 40°40' W 074°02'0 0.0
2017-Sep-13 20:28N 40°40' W 074°02'0 0.0
2017-Sep-13 19:58N 40°40' W 074°02'0 0.0
2017-Sep-13 19:28N 40°40' W 074°02'0 0.0
2017-Sep-13 18:58N 40°40' W 074°02'0 0.0
2017-Sep-13 18:28N 40°40' W 074°02'0 0.0
2017-Sep-13 17:58N 40°40' W 074°02'0 0.0
2017-Sep-13 17:28N 40°40' W 074°02'0 0.0
2017-Sep-13 16:58N 40°40' W 074°02'0 0.0
2017-Sep-13 16:28N 40°40' W 074°02'0 0.2
2017-Sep-13 15:58N 40°40' W 074°02'0 0.1
2017-Sep-13 15:28N 40°40' W 074°02'0 0.1
2017-Sep-13 15:01N 40°40' W 074°02'0 0.0
2017-Sep-13 14:31N 40°40' W 074°02'0 0.0
2017-Sep-13 13:58N 40°40' W 074°02'0 0.0
2017-Sep-13 13:28N 40°40' W 074°02'0 0.0
2017-Sep-13 12:58N 40°40' W 074°02'0 0.0
2017-Sep-13 12:28N 40°40' W 074°02'0 0.0
2017-Sep-13 11:58N 40°40' W 074°02'0 0.0
2017-Sep-13 11:28N 40°40' W 074°02'0 0.0
2017-Sep-13 10:58N 40°40' W 074°02'0 0.0
2017-Sep-13 10:31N 40°40' W 074°02'1 2.0
2017-Sep-13 09:58N 40°40' W 074°01'0 0.0
2017-Sep-13 09:28N 40°40' W 074°01'0 0.0
2017-Sep-13 08:58N 40°40' W 074°01'0 0.0
2017-Sep-13 08:28N 40°40' W 074°01'0 0.0
2017-Sep-13 07:58N 40°40' W 074°01'0 0.0
2017-Sep-13 07:28N 40°40' W 074°01'0 0.0
2017-Sep-13 06:58N 40°40' W 074°01'0 0.0
2017-Sep-13 06:28N 40°40' W 074°01'0 0.0
2017-Sep-13 05:58N 40°40' W 074°01'0 0.0
2017-Sep-13 05:28N 40°40' W 074°01'0 0.0
2017-Sep-13 04:58N 40°40' W 074°01'0 0.0
2017-Sep-13 04:28N 40°40' W 074°01'0 0.0
2017-Sep-13 03:58N 40°40' W 074°01'0 0.0
2017-Sep-13 03:28N 40°40' W 074°01'0 0.0
2017-Sep-13 02:58N 40°40' W 074°01'0 0.0
2017-Sep-13 02:28N 40°40' W 074°01'0 0.0
2017-Sep-13 01:58N 40°40' W 074°01'1 2.1
2017-Sep-13 01:31N 40°40' W 074°02'1 1.7
2017-Sep-13 00:59N 40°40' W 074°01'0 0.0
2017-Sep-13 00:29N 40°40' W 074°01'0 0.0
2017-Sep-12 23:59N 40°40' W 074°01'0 0.0
2017-Sep-12 23:29N 40°40' W 074°01'0 0.0
2017-Sep-12 22:59N 40°40' W 074°01'0 0.0
2017-Sep-12 22:29N 40°40' W 074°01'0 0.0
2017-Sep-12 21:59N 40°40' W 074°01'0 0.0
2017-Sep-12 21:29N 40°40' W 074°01'0 0.0
2017-Sep-12 20:59N 40°40' W 074°01'0 0.0
2017-Sep-12 20:29N 40°40' W 074°01'0 0.0
2017-Sep-12 19:59N 40°40' W 074°01'0 0.0
2017-Sep-12 19:29N 40°40' W 074°01'0 0.0
2017-Sep-12 18:59N 40°40' W 074°01'0 0.0
2017-Sep-12 18:29N 40°40' W 074°01'0 0.0
2017-Sep-12 17:59N 40°40' W 074°01'0 0.0
2017-Sep-12 17:29N 40°40' W 074°01'0 0.0
2017-Sep-12 16:59N 40°40' W 074°01'0 0.0
2017-Sep-12 16:29N 40°40' W 074°01'0 0.0
2017-Sep-12 15:59N 40°40' W 074°01'0 0.0
2017-Sep-12 15:29N 40°40' W 074°01'0 0.0
2017-Sep-12 14:59N 40°40' W 074°01'0 0.0
2017-Sep-12 14:29N 40°40' W 074°01'0 0.0
2017-Sep-12 13:59N 40°40' W 074°01'0 0.0
2017-Sep-12 13:29N 40°40' W 074°01'0 0.0
2017-Sep-12 12:59N 40°40' W 074°01'0 0.0
2017-Sep-12 12:29N 40°40' W 074°01'0 0.0
2017-Sep-12 11:59N 40°40' W 074°01'0 0.0
2017-Sep-12 11:29N 40°40' W 074°01'0 0.0
2017-Sep-12 10:59N 40°40' W 074°01'0 0.0
2017-Sep-12 10:29N 40°40' W 074°01'0 0.0
2017-Sep-12 09:59N 40°40' W 074°01'0 0.0
2017-Sep-12 09:29N 40°40' W 074°01'0 0.0
2017-Sep-12 08:59N 40°40' W 074°01'0 0.0
2017-Sep-12 08:29N 40°40' W 074°01'0 0.0
2017-Sep-12 07:59N 40°40' W 074°01'0 0.0
2017-Sep-12 07:29N 40°40' W 074°01'0 0.0
2017-Sep-12 06:59N 40°40' W 074°01'0 0.0
2017-Sep-12 06:29N 40°40' W 074°01'0 0.0
2017-Sep-12 05:59N 40°40' W 074°01'0 0.0
2017-Sep-12 05:29N 40°40' W 074°01'0 0.0
2017-Sep-12 04:59N 40°40' W 074°01'0 0.0
2017-Sep-12 04:29N 40°40' W 074°01'0 0.0
2017-Sep-12 03:59N 40°40' W 074°01'0 0.0
2017-Sep-12 03:29N 40°40' W 074°01'0 0.0
2017-Sep-12 02:59N 40°40' W 074°01'0 0.0
2017-Sep-12 02:29N 40°40' W 074°01'0 0.0
2017-Sep-12 01:59N 40°40' W 074°01'0 0.0
2017-Sep-12 01:29N 40°40' W 074°01'0 0.9
2017-Sep-12 01:01N 40°40' W 074°01'4 8.2
2017-Sep-12 00:31N 40°39' W 074°06'1 2.4
2017-Sep-12 00:00N 40°38' W 074°08'0 0.9
2017-Sep-11 23:31N 40°39' W 074°07'3 6.7
2017-Sep-11 23:00N 40°39' W 074°03'0 0.0
2017-Sep-11 22:30N 40°39' W 074°03'0 0.1
2017-Sep-11 22:00N 40°39' W 074°03'0 0.0
2017-Sep-11 21:30N 40°39' W 074°03'0 0.0
2017-Sep-11 21:00N 40°39' W 074°03'1 2.0
2017-Sep-11 20:30N 40°40' W 074°02'1 1.0
2017-Sep-11 19:30N 40°40' W 074°01'0 0.0
2017-Sep-11 19:00N 40°40' W 074°01'0 0.0
2017-Sep-11 18:30N 40°40' W 074°01'0 0.0
2017-Sep-11 18:00N 40°40' W 074°01'0 0.0
2017-Sep-11 17:30N 40°40' W 074°01'0 0.0
2017-Sep-11 17:00N 40°40' W 074°01'0 0.0
2017-Sep-11 16:30N 40°40' W 074°01'0 0.0
2017-Sep-11 16:00N 40°40' W 074°01'0 0.0
2017-Sep-11 15:30N 40°40' W 074°01'0 0.0
2017-Sep-11 15:00N 40°40' W 074°01'0 0.0
2017-Sep-11 14:30N 40°40' W 074°01'0 0.0
2017-Sep-11 14:00N 40°40' W 074°01'0 0.0
2017-Sep-11 13:30N 40°40' W 074°01'0 0.0
2017-Sep-11 13:00N 40°40' W 074°01'0 0.0
2017-Sep-11 12:30N 40°40' W 074°01'0 0.0
2017-Sep-11 12:00N 40°40' W 074°01'0 0.0
2017-Sep-11 11:30N 40°40' W 074°01'0 0.0
2017-Sep-11 11:00N 40°40' W 074°01'0 0.0
2017-Sep-11 10:30N 40°40' W 074°01'0 0.0
2017-Sep-11 10:00N 40°40' W 074°01'0 0.0
2017-Sep-11 09:30N 40°40' W 074°01'0 0.0
2017-Sep-11 09:00N 40°40' W 074°01'0 0.0
2017-Sep-11 08:30N 40°40' W 074°01'0 0.0
2017-Sep-11 08:00N 40°40' W 074°01'0 0.0
2017-Sep-11 07:30N 40°40' W 074°01'0 0.0
2017-Sep-11 07:00N 40°40' W 074°01'0 0.0
2017-Sep-11 06:30N 40°40' W 074°01'0 0.0
2017-Sep-11 06:00N 40°40' W 074°01'0 0.0
2017-Sep-11 05:30N 40°40' W 074°01'0 0.0
2017-Sep-11 05:00N 40°40' W 074°01'0 0.0
2017-Sep-11 04:30N 40°40' W 074°01'0 0.0
2017-Sep-11 04:00N 40°40' W 074°01'0 0.0
2017-Sep-11 03:30N 40°40' W 074°01'0 0.0
2017-Sep-11 03:00N 40°40' W 074°01'0 0.0
2017-Sep-11 02:30N 40°40' W 074°01'0 0.0
2017-Sep-11 02:00N 40°40' W 074°01'0 0.0
2017-Sep-11 01:30N 40°40' W 074°01'0 0.0
2017-Sep-11 01:00N 40°40' W 074°01'0 0.0
2017-Sep-11 00:30N 40°40' W 074°01'0 0.0
2017-Sep-11 00:00N 40°40' W 074°01'0 0.0
2017-Sep-10 23:30N 40°40' W 074°01'0 0.0
2017-Sep-10 23:00N 40°40' W 074°01'0 0.0
2017-Sep-10 22:30N 40°40' W 074°01'0 0.0
2017-Sep-10 22:00N 40°40' W 074°01'0 0.0
2017-Sep-10 21:30N 40°40' W 074°01'0 0.0
2017-Sep-10 21:00N 40°40' W 074°01'0 0.0
2017-Sep-10 20:30N 40°40' W 074°01'0 0.0
2017-Sep-10 20:00N 40°40' W 074°01'0 0.0
2017-Sep-10 19:30N 40°40' W 074°01'0 0.0
2017-Sep-10 19:00N 40°40' W 074°01'0 0.0
2017-Sep-10 18:30N 40°40' W 074°01'0 0.0
2017-Sep-10 18:00N 40°40' W 074°01'0 0.0
2017-Sep-10 17:30N 40°40' W 074°01'0 0.0
2017-Sep-10 17:00N 40°40' W 074°01'0 0.0
2017-Sep-10 16:30N 40°40' W 074°01'0 0.0
2017-Sep-10 16:00N 40°40' W 074°01'0 0.0
2017-Sep-10 15:30N 40°40' W 074°01'0 0.0
2017-Sep-10 15:00N 40°40' W 074°01'0 0.0
2017-Sep-10 14:00N 40°40' W 074°01'0 0.0
2017-Sep-10 13:30N 40°40' W 074°01'0 0.0
2017-Sep-10 13:00N 40°40' W 074°01'0 0.0
2017-Sep-10 12:30N 40°40' W 074°01'0 0.0
2017-Sep-10 12:00N 40°40' W 074°01'0 0.0
2017-Sep-10 11:30N 40°40' W 074°01'0 0.0
2017-Sep-10 10:57N 40°40' W 074°01'0 0.0
2017-Sep-10 10:30N 40°40' W 074°01'0 0.0
2017-Sep-10 10:00N 40°40' W 074°01'0 0.0
2017-Sep-10 09:30N 40°40' W 074°01'0 0.0
2017-Sep-10 09:00N 40°40' W 074°01'0 0.0
2017-Sep-10 08:30N 40°40' W 074°01'0 0.0
2017-Sep-10 08:00N 40°40' W 074°01'0 0.0
2017-Sep-10 07:30N 40°40' W 074°01'0 0.0
2017-Sep-10 07:00N 40°40' W 074°01'0 0.0
2017-Sep-10 06:30N 40°40' W 074°01'0 0.0
2017-Sep-10 06:00N 40°40' W 074°01'0 0.0
2017-Sep-10 05:30N 40°40' W 074°01'0 0.0
2017-Sep-10 05:00N 40°40' W 074°01'0 0.0
2017-Sep-10 04:30N 40°40' W 074°01'0 0.0
2017-Sep-10 04:00N 40°40' W 074°01'0 0.0
2017-Sep-10 03:30N 40°40' W 074°01'0 0.0
2017-Sep-10 03:00N 40°40' W 074°01'0 0.0
2017-Sep-10 02:30N 40°40' W 074°01'0 0.0
2017-Sep-10 02:00N 40°40' W 074°01'0 0.0
2017-Sep-10 01:30N 40°40' W 074°01'0 0.0
2017-Sep-10 01:00N 40°40' W 074°01'0 0.0
2017-Sep-10 00:30N 40°40' W 074°01'0 0.0
2017-Sep-10 00:00N 40°40' W 074°01'0 0.0
2017-Sep-09 23:30N 40°40' W 074°01'0 0.0
2017-Sep-09 23:00N 40°40' W 074°01'0 0.0
2017-Sep-09 22:30N 40°40' W 074°01'0 0.0
2017-Sep-09 22:00N 40°40' W 074°01'0 0.0
2017-Sep-09 21:30N 40°40' W 074°01'0 0.0
2017-Sep-09 21:00N 40°40' W 074°01'0 0.0
2017-Sep-09 20:30N 40°40' W 074°01'0 0.0
2017-Sep-09 20:00N 40°40' W 074°01'0 0.0
2017-Sep-09 19:30N 40°40' W 074°01'0 0.0
2017-Sep-09 19:00N 40°40' W 074°01'0 0.0
2017-Sep-09 18:30N 40°40' W 074°01'0 0.0
2017-Sep-09 18:00N 40°40' W 074°01'0 0.0
2017-Sep-09 17:30N 40°40' W 074°01'0 0.0
2017-Sep-09 17:00N 40°40' W 074°01'0 0.0
2017-Sep-09 16:30N 40°40' W 074°01'0 0.0
2017-Sep-09 16:00N 40°40' W 074°01'0 0.0
2017-Sep-09 15:30N 40°40' W 074°01'0 0.0
2017-Sep-09 15:00N 40°40' W 074°01'0 0.0
2017-Sep-09 14:30N 40°40' W 074°01'0 0.0
2017-Sep-09 14:00N 40°40' W 074°01'0 0.0
2017-Sep-09 13:30N 40°40' W 074°01'0 0.0
2017-Sep-09 13:00N 40°40' W 074°01'  

Dump ship's entire track history